»·PEaware :: GTI242 KPDX-CYVR

GTI242 :: KPDX-CYVR

FLIGHT INFORMATION

Flight Status: Arrived
Operator:
Atlas Air
More flights by this operator :: More flights under this callsign
Pilot: Jordan L. (14859)
Aircraft: BOEING 747-400 (WINGLETS)
(B744)
More flights by this aircraft type
Origin: KPDX Portland Intl
United States
Destination: CYVR Vancouver Intl
Canada
More flights between these airports :: More routes between these airports
Route: BTG J1 SEA PAE GRIZZ6
File this flight plan on PilotEdge
Remarks: RMK / POWERED BY SIMBRIEF - Aloha AJ
Altitude:
(Current/Filed)
28,000ft
Speed:
(Current/Filed)
458kts
Departed: 08-Jan-19 05:39 PM
Arrived: 08-Jan-19 06:23 PM
Distance/Time
Traveled:
217nm/0:44
Distance/Time
To Go:
Arrived

Flight Plot

Page will automatically refresh every two minutes.

Flight plan parsing failed; only flown route is shown


Map Options




Map Legend


Flown Route
Filed Route
Departure Airport
Arrival Airport
Navaid (VOR, NDB)
Fix

Horizontal Profiles

Position Reports

Time Latitude Longitude Heading Altitude Ground
Speed
08-Jan-19 17:00 45.580774 -122.609419 44 43ft 0kts
08-Jan-19 17:01 45.580774 -122.609419 44 43ft 0kts
08-Jan-19 17:02 45.580774 -122.609419 44 43ft 0kts
08-Jan-19 17:03 45.580774 -122.609419 44 43ft 0kts
08-Jan-19 17:04 45.580774 -122.609419 44 43ft 0kts
08-Jan-19 17:05 45.580774 -122.609419 44 43ft 0kts
08-Jan-19 17:06 45.580774 -122.609419 44 43ft 0kts
08-Jan-19 17:07 45.580774 -122.609419 44 43ft 0kts
08-Jan-19 17:08 45.580774 -122.609419 44 43ft 0kts
08-Jan-19 17:09 45.580774 -122.609419 44 43ft 0kts
08-Jan-19 17:10 45.580774 -122.609419 44 43ft 0kts
08-Jan-19 17:12 45.580774 -122.609419 44 43ft 0kts
08-Jan-19 17:13 45.580774 -122.609419 44 43ft 0kts
08-Jan-19 17:14 45.580774 -122.609419 44 43ft 0kts
08-Jan-19 17:15 45.580774 -122.609419 44 43ft 0kts
08-Jan-19 17:16 45.580774 -122.609419 44 43ft 0kts
08-Jan-19 17:17 45.580774 -122.609419 44 43ft 0kts
08-Jan-19 17:18 45.580774 -122.609419 44 43ft 0kts
08-Jan-19 17:19 45.580774 -122.609419 44 43ft 0kts
08-Jan-19 17:20 45.580774 -122.609419 44 43ft 0kts
08-Jan-19 17:21 45.580774 -122.609419 44 43ft 0kts
08-Jan-19 17:22 45.580774 -122.609419 44 43ft 0kts
08-Jan-19 17:23 45.580774 -122.609419 44 43ft 0kts
08-Jan-19 17:24 45.580774 -122.609419 44 43ft 0kts
08-Jan-19 17:25 45.580774 -122.609419 44 43ft 0kts
08-Jan-19 17:26 45.580774 -122.609419 44 43ft 0kts
08-Jan-19 17:27 45.580774 -122.609419 44 43ft 0kts
08-Jan-19 17:28 45.580774 -122.609419 44 43ft 0kts
08-Jan-19 17:28 45.580612 -122.609626 28 43ft 2kts
08-Jan-19 17:30 45.579998 -122.609536 315 43ft 2kts
08-Jan-19 17:30 45.579969 -122.609494 315 43ft 0kts
08-Jan-19 17:32 45.579969 -122.609494 315 43ft 0kts
08-Jan-19 17:32 45.580863 -122.610784 314 43ft 13kts
08-Jan-19 17:33 45.581776 -122.612101 314 43ft 2kts
08-Jan-19 17:35 45.584945 -122.611047 45 43ft 18kts
08-Jan-19 17:35 45.588276 -122.606285 44 43ft 20kts
08-Jan-19 17:36 45.592210 -122.600684 44 43ft 18kts
08-Jan-19 17:37 45.594686 -122.595238 115 43ft 20kts
08-Jan-19 17:38 45.579902 -122.543883 97 1453ft 222kts
08-Jan-19 17:39 45.575066 -122.454636 95 4688ft 228kts
08-Jan-19 17:40 45.596682 -122.367113 31 7765ft 293kts
08-Jan-19 17:41 45.681036 -122.335707 15 10828ft 331kts
08-Jan-19 17:42 45.776389 -122.297920 15 12818ft 400kts
08-Jan-19 17:43 45.896844 -122.287233 357 14841ft 463kts
08-Jan-19 17:44 46.028940 -122.287037 356 18184ft 484kts
08-Jan-19 17:45 46.166602 -122.288901 356 21124ft 504kts
08-Jan-19 17:46 46.309733 -122.291157 357 23774ft 523kts
08-Jan-19 17:47 46.457380 -122.293528 357 26312ft 537kts
08-Jan-19 17:48 46.607154 -122.295953 357 27913ft 537kts
08-Jan-19 17:49 46.756743 -122.298390 357 27906ft 537kts
08-Jan-19 17:50 46.905739 -122.300827 357 27902ft 535kts
08-Jan-19 17:51 47.054550 -122.303280 356 27900ft 534kts
08-Jan-19 17:52 47.202728 -122.305725 356 27901ft 533kts
08-Jan-19 17:53 47.351144 -122.308205 356 27909ft 532kts
08-Jan-19 17:54 47.498904 -122.306618 0 27913ft 533kts
08-Jan-19 17:55 47.646971 -122.295852 0 27926ft 532kts
08-Jan-19 17:56 47.788250 -122.286519 359 27586ft 478kts
08-Jan-19 17:57 47.917697 -122.279964 352 25936ft 455kts
08-Jan-19 17:58 48.039519 -122.311491 343 24146ft 437kts
08-Jan-19 17:59 48.159031 -122.347087 344 23932ft 437kts
08-Jan-19 18:00 48.277382 -122.381380 344 22754ft 427kts
08-Jan-19 18:01 48.392925 -122.415231 344 20894ft 418kts
08-Jan-19 18:02 48.505771 -122.448497 345 19051ft 409kts
08-Jan-19 18:03 48.616612 -122.481210 345 16934ft 407kts
08-Jan-19 18:04 48.718137 -122.534463 312 15263ft 373kts
08-Jan-19 18:05 48.785149 -122.650435 300 13404ft 358kts
08-Jan-19 18:06 48.844028 -122.767259 301 11670ft 338kts
08-Jan-19 18:07 48.900661 -122.878960 302 10300ft 323kts
08-Jan-19 18:08 48.954173 -122.979249 319 9465ft 296kts
08-Jan-19 18:09 49.030703 -123.001316 7 8752ft 281kts
08-Jan-19 18:10 49.074312 -122.916571 87 7284ft 254kts
08-Jan-19 18:11 49.069782 -122.812533 100 6021ft 241kts
08-Jan-19 18:12 49.059431 -122.713321 100 5137ft 233kts
08-Jan-19 18:13 49.049466 -122.618329 97 3384ft 219kts
08-Jan-19 18:14 49.088525 -122.580438 329 3015ft 215kts
08-Jan-19 18:15 49.114966 -122.663926 289 3022ft 224kts
08-Jan-19 18:16 49.133138 -122.754662 288 3021ft 223kts
08-Jan-19 18:17 49.148075 -122.842123 281 2997ft 196kts
08-Jan-19 18:18 49.157180 -122.921106 281 3009ft 186kts
08-Jan-19 18:19 49.165772 -122.995888 280 2164ft 169kts
08-Jan-19 18:20 49.173629 -123.064353 278 1266ft 162kts
08-Jan-19 18:21 49.181143 -123.131395 279 424ft 157kts
08-Jan-19 18:22 49.187236 -123.183270 280 27ft 27kts
08-Jan-19 18:23 49.188805 -123.180756 43 27ft 10kts
08-Jan-19 18:24 49.188532 -123.176087 100 27ft 11kts
08-Jan-19 18:25 49.187607 -123.168122 99 27ft 21kts
08-Jan-19 18:26 49.186321 -123.161867 105 27ft 9kts
08-Jan-19 18:27 49.187322 -123.159938 355 27ft 0kts
08-Jan-19 18:28 49.187322 -123.159938 355 27ft 0kts
08-Jan-19 18:29 49.187322 -123.159938 355 27ft 0kts
08-Jan-19 18:30 49.187322 -123.159938 355 27ft 0kts
08-Jan-19 18:31 49.187322 -123.159938 355 27ft 0kts
08-Jan-19 18:32 49.187322 -123.159938 355 27ft 0kts
08-Jan-19 18:33 49.187322 -123.159938 355 27ft 0kts
08-Jan-19 18:34 49.187322 -123.159938 355 27ft 0kts
08-Jan-19 18:35 49.187322 -123.159938 355 27ft 0kts
08-Jan-19 18:36 49.187322 -123.159938 355 27ft 0kts

Navigation Log

Ident Type
Flight plan parsing failed, navigation log unavailable